Time;durP1;ratioP1;P1;durP2;ratioP2;P2;SDS_P1;SDS_P2;PMS_P1;PMS_P2;Temp;Humidity;BMP_temperature;BMP_pressure;BME280_temperature;BME280_humidity;BME280_pressure;Samples;Min_cycle;Max_cycle;Signal;HPM_P1;HPM_P2
2023/08/13 00:00:48;;;;;;;6.30;2.20;;;15.10;99.90;;;;;;5035626;28;20229;-82
2023/08/13 00:03:16;;;;;;;2.75;1.85;;;15.10;99.90;;;;;;5037528;28;20197;-82
2023/08/13 00:05:46;;;;;;;4.72;2.08;;;15.20;99.90;;;;;;5032767;28;20186;-82
2023/08/13 00:08:14;;;;;;;5.35;1.98;;;15.10;99.90;;;;;;5034264;28;20190;-82
2023/08/13 00:10:41;;;;;;;7.70;2.22;;;15.10;99.90;;;;;;5040001;28;20658;-82
2023/08/13 00:13:10;;;;;;;4.93;1.85;;;15.00;99.90;;;;;;5032510;28;20194;-82
2023/08/13 00:15:38;;;;;;;3.25;1.75;;;15.00;99.90;;;;;;5043151;28;20242;-83
2023/08/13 00:18:06;;;;;;;5.40;2.33;;;15.00;99.90;;;;;;5035045;28;20208;-82
2023/08/13 00:20:33;;;;;;;5.47;1.90;;;15.00;99.90;;;;;;5037930;28;20563;-82
2023/08/13 00:23:02;;;;;;;4.47;2.10;;;14.90;99.90;;;;;;5037941;27;20723;-82
2023/08/13 00:25:29;;;;;;;5.15;1.90;;;15.00;99.90;;;;;;5030530;28;20239;-82
2023/08/13 00:27:57;;;;;;;5.35;2.17;;;14.90;99.90;;;;;;5045768;28;20203;-82
2023/08/13 00:30:24;;;;;;;9.15;1.90;;;14.90;99.90;;;;;;5037346;28;20201;-82
2023/08/13 00:32:52;;;;;;;8.13;1.95;;;14.90;99.90;;;;;;5019615;28;20738;-81
2023/08/13 00:35:19;;;;;;;4.45;1.95;;;15.00;99.90;;;;;;5010801;28;20704;-83
2023/08/13 00:37:47;;;;;;;3.72;1.63;;;15.00;99.90;;;;;;5033584;28;20201;-82
2023/08/13 00:40:15;;;;;;;5.50;1.85;;;15.00;99.90;;;;;;5033263;28;20257;-81
2023/08/13 00:42:42;;;;;;;4.00;2.00;;;14.90;99.90;;;;;;5030973;28;20200;-82
2023/08/13 00:45:10;;;;;;;5.13;2.03;;;14.90;99.90;;;;;;5034038;28;20185;-81
2023/08/13 00:47:38;;;;;;;6.45;2.33;;;14.80;99.90;;;;;;5038367;28;20215;-82
2023/08/13 00:50:06;;;;;;;10.77;2.00;;;14.80;99.90;;;;;;5028409;28;20217;-82
2023/08/13 00:52:34;;;;;;;4.53;1.90;;;14.80;99.90;;;;;;5042988;28;20186;-81
2023/08/13 00:55:02;;;;;;;6.43;2.45;;;14.80;99.90;;;;;;5034820;28;20257;-82
2023/08/13 00:57:30;;;;;;;3.92;1.80;;;14.70;99.90;;;;;;5034907;28;20292;-82
2023/08/13 00:59:58;;;;;;;10.70;2.55;;;14.70;99.90;;;;;;5029770;28;20583;-81
2023/08/13 01:02:26;;;;;;;5.32;1.88;;;14.60;99.90;;;;;;5036266;28;20182;-83
2023/08/13 01:04:54;;;;;;;9.50;2.60;;;14.60;99.90;;;;;;5034173;28;20186;-83
2023/08/13 01:07:44;;;;;;;8.77;2.78;;;14.60;99.90;;;;;;5033984;28;20893;-82
2023/08/13 01:10:25;;;;;;;4.03;2.08;;;14.60;99.90;;;;;;5031067;28;20275;-81
2023/08/13 01:13:03;;;;;;;5.97;2.67;;;14.50;99.90;;;;;;5046944;28;20701;-82
2023/08/13 01:15:33;;;;;;;5.82;2.28;;;14.50;99.90;;;;;;5032488;28;20203;-81
2023/08/13 01:18:02;;;;;;;9.00;2.35;;;14.60;99.90;;;;;;5016918;28;20680;-81
2023/08/13 01:20:37;;;;;;;5.93;2.50;;;14.50;99.90;;;;;;5035122;28;20741;-82
2023/08/13 01:23:05;;;;;;;6.53;2.35;;;14.40;99.90;;;;;;5035703;28;20297;-82
2023/08/13 01:25:33;;;;;;;5.93;2.50;;;14.40;99.90;;;;;;5032195;28;20197;-82
2023/08/13 01:28:06;;;;;;;10.43;2.72;;;14.40;99.90;;;;;;5038074;28;20279;-81
2023/08/13 01:31:11;;;;;;;5.35;2.15;;;14.40;99.90;;;;;;5027866;28;20296;-82
2023/08/13 01:33:42;;;;;;;4.03;2.40;;;14.30;99.90;;;;;;5024199;28;20210;-82
2023/08/13 01:36:10;;;;;;;9.48;2.60;;;14.20;99.90;;;;;;5035238;28;20190;-82
2023/08/13 01:38:38;;;;;;;4.35;2.35;;;14.20;99.90;;;;;;5029518;28;20259;-82
2023/08/13 01:41:06;;;;;;;4.90;2.30;;;14.10;99.90;;;;;;5034454;28;20289;-82
2023/08/13 01:43:33;;;;;;;8.98;2.97;;;14.20;99.90;;;;;;5036001;28;20713;-82
2023/08/13 01:46:02;;;;;;;5.13;2.20;;;14.00;99.90;;;;;;5034612;28;20194;-82
2023/08/13 01:48:30;;;;;;;5.45;2.17;;;14.00;99.90;;;;;;5037495;28;20201;-82
2023/08/13 01:50:57;;;;;;;5.55;2.38;;;14.00;99.90;;;;;;5028720;28;20225;-82
2023/08/13 01:53:26;;;;;;;6.55;2.70;;;14.00;99.90;;;;;;5035533;28;20198;-82
2023/08/13 01:55:53;;;;;;;6.75;2.15;;;14.00;99.90;;;;;;5038584;28;20198;-82
2023/08/13 01:58:21;;;;;;;6.00;2.42;;;13.90;99.90;;;;;;5011870;28;20300;-81
2023/08/13 02:00:48;;;;;;;7.28;2.45;;;13.90;99.90;;;;;;5036560;28;20619;-82
2023/08/13 02:03:16;;;;;;;5.80;2.67;;;13.90;99.90;;;;;;5034150;28;20182;-82
2023/08/13 02:05:43;;;;;;;5.05;2.75;;;13.90;99.90;;;;;;5041657;28;20193;-82
2023/08/13 02:08:11;;;;;;;6.45;2.80;;;13.90;99.90;;;;;;5037513;28;20827;-81
2023/08/13 02:10:38;;;;;;;5.65;2.38;;;13.80;99.90;;;;;;5037222;28;20695;-82
2023/08/13 02:13:06;;;;;;;5.03;2.30;;;13.80;99.90;;;;;;5037356;28;20194;-82
2023/08/13 02:15:33;;;;;;;4.35;2.60;;;13.80;99.90;;;;;;5038181;28;20251;-81
2023/08/13 02:18:03;;;;;;;5.00;2.22;;;13.70;99.90;;;;;;5034728;28;20224;-82
2023/08/13 02:20:30;;;;;;;6.05;2.50;;;13.70;99.90;;;;;;5032722;28;20324;-82
2023/08/13 02:22:58;;;;;;;4.75;2.60;;;13.70;99.90;;;;;;5019538;28;20186;-82
2023/08/13 02:25:25;;;;;;;4.95;2.50;;;13.60;99.90;;;;;;5037678;28;20551;-81
2023/08/13 02:27:53;;;;;;;9.50;2.85;;;13.60;99.90;;;;;;5037451;28;20206;-82
2023/08/13 02:30:20;;;;;;;4.80;2.45;;;13.60;99.90;;;;;;5035404;28;20208;-82
2023/08/13 02:32:48;;;;;;;5.95;3.13;;;13.60;99.90;;;;;;5040319;28;20217;-82
2023/08/13 02:35:16;;;;;;;6.03;2.72;;;13.50;99.90;;;;;;5030631;28;20189;-81
2023/08/13 02:37:43;;;;;;;6.20;2.67;;;13.50;99.90;;;;;;5036360;28;20615;-81
2023/08/13 02:40:11;;;;;;;5.22;2.70;;;13.40;99.90;;;;;;5037442;28;20917;-82
2023/08/13 02:42:38;;;;;;;4.53;3.00;;;13.40;99.90;;;;;;5020913;28;20194;-82
2023/08/13 02:45:06;;;;;;;14.23;3.33;;;13.30;99.90;;;;;;5037947;28;20198;-82
2023/08/13 02:47:34;;;;;;;7.35;2.53;;;13.40;99.90;;;;;;5037444;28;20221;-81
2023/08/13 02:50:02;;;;;;;7.07;3.17;;;13.40;99.90;;;;;;5031541;28;20289;-82
2023/08/13 02:52:30;;;;;;;4.57;2.90;;;13.40;99.90;;;;;;5039216;28;20193;-82
2023/08/13 02:54:57;;;;;;;6.88;2.78;;;13.30;99.90;;;;;;5019144;28;20198;-82
2023/08/13 02:57:25;;;;;;;9.73;2.65;;;13.30;99.90;;;;;;5028832;28;20775;-82
2023/08/13 02:59:54;;;;;;;7.28;2.58;;;13.30;99.90;;;;;;5035221;28;20569;-82
2023/08/13 03:02:21;;;;;;;6.90;2.90;;;13.40;99.90;;;;;;5036660;28;20190;-82
2023/08/13 03:04:49;;;;;;;6.65;2.67;;;13.50;99.90;;;;;;5034601;28;20289;-82
2023/08/13 03:07:16;;;;;;;10.75;2.72;;;13.50;99.90;;;;;;5018076;28;20277;-82
2023/08/13 03:09:44;;;;;;;4.38;2.55;;;13.40;99.90;;;;;;5032783;28;20271;-82
2023/08/13 03:12:11;;;;;;;7.13;2.85;;;13.30;99.90;;;;;;5036136;28;20852;-82
2023/08/13 03:14:41;;;;;;;8.32;2.78;;;13.30;99.90;;;;;;5033755;28;20197;-82
2023/08/13 03:17:09;;;;;;;8.68;2.50;;;13.30;99.90;;;;;;5038461;28;20293;-82
2023/08/13 03:19:36;;;;;;;8.25;2.83;;;13.30;99.90;;;;;;5015015;28;20280;-81
2023/08/13 03:22:04;;;;;;;8.07;3.08;;;13.30;99.90;;;;;;5022539;28;20719;-82
2023/08/13 03:24:32;;;;;;;7.28;2.50;;;13.30;99.90;;;;;;5034766;28;20221;-82
2023/08/13 03:27:00;;;;;;;7.72;2.58;;;13.30;99.90;;;;;;5018908;28;20274;-82
2023/08/13 03:29:28;;;;;;;3.80;2.30;;;13.30;99.90;;;;;;5031137;28;20198;-82
2023/08/13 03:31:57;;;;;;;5.30;2.25;;;13.30;99.90;;;;;;5031361;28;20281;-83
2023/08/13 03:34:25;;;;;;;6.35;2.90;;;13.30;99.90;;;;;;5020719;28;20193;-82
2023/08/13 03:36:53;;;;;;;7.00;2.90;;;13.40;99.90;;;;;;5030375;28;20193;-83
2023/08/13 03:39:20;;;;;;;5.78;2.80;;;13.40;99.90;;;;;;5035605;28;20225;-82
2023/08/13 03:41:48;;;;;;;5.60;2.80;;;13.30;99.90;;;;;;5029911;28;20194;-82
2023/08/13 03:44:15;;;;;;;9.20;2.72;;;13.30;99.90;;;;;;5033213;28;20205;-82
2023/08/13 03:46:43;;;;;;;5.20;2.72;;;13.20;99.90;;;;;;5029629;28;20186;-82
2023/08/13 03:49:11;;;;;;;7.80;2.88;;;13.20;99.90;;;;;;5036702;28;20585;-81
2023/08/13 03:51:38;;;;;;;7.15;2.67;;;13.10;99.90;;;;;;5037862;28;20562;-81
2023/08/13 03:54:06;;;;;;;11.32;2.80;;;13.10;99.90;;;;;;5009879;28;20601;-81
2023/08/13 03:56:37;;;;;;;6.75;2.83;;;13.20;99.90;;;;;;5034296;28;20204;-82
2023/08/13 03:59:04;;;;;;;4.18;2.63;;;13.10;99.90;;;;;;5029013;28;20298;-81
2023/08/13 04:01:32;;;;;;;8.13;2.83;;;13.10;99.90;;;;;;5035847;28;20208;-81
2023/08/13 04:04:01;;;;;;;7.05;3.13;;;13.10;99.90;;;;;;5037636;28;20189;-81
2023/08/13 04:06:29;;;;;;;4.68;2.72;;;13.10;99.90;;;;;;5019562;28;20190;-83
2023/08/13 04:08:58;;;;;;;3.67;2.50;;;13.10;99.90;;;;;;5025740;28;20196;-82
2023/08/13 04:11:27;;;;;;;3.40;2.58;;;13.20;99.90;;;;;;5036113;28;20611;-82
2023/08/13 04:13:54;;;;;;;7.97;2.92;;;13.10;99.90;;;;;;5036462;28;20198;-81
2023/08/13 04:16:23;;;;;;;10.00;2.75;;;13.20;99.90;;;;;;5019030;28;20250;-81
2023/08/13 04:18:50;;;;;;;8.20;3.22;;;13.20;99.90;;;;;;5036004;28;20208;-82
2023/08/13 04:21:20;;;;;;;6.25;2.50;;;13.20;99.90;;;;;;5033392;28;20189;-81
2023/08/13 04:23:48;;;;;;;8.70;2.85;;;13.20;99.90;;;;;;5035645;28;20321;-81
2023/08/13 04:26:17;;;;;;;6.32;2.60;;;13.20;99.90;;;;;;5016692;28;20217;-81
2023/08/13 04:28:45;;;;;;;6.30;2.67;;;13.20;99.90;;;;;;5037588;28;20284;-81
2023/08/13 04:31:12;;;;;;;7.45;2.97;;;13.20;99.90;;;;;;5031501;28;20246;-82
2023/08/13 04:33:40;;;;;;;6.10;2.80;;;13.30;99.90;;;;;;5035923;28;20213;-81
2023/08/13 04:36:08;;;;;;;7.72;2.92;;;13.30;99.90;;;;;;5036775;28;20197;-82
2023/08/13 04:38:35;;;;;;;4.53;2.70;;;13.30;99.90;;;;;;5035821;28;20792;-82
2023/08/13 04:41:05;;;;;;;7.47;2.63;;;13.30;99.90;;;;;;5044726;28;20230;-81
2023/08/13 04:43:37;;;;;;;6.53;3.10;;;13.40;99.90;;;;;;5005910;28;20198;-81
2023/08/13 04:46:06;;;;;;;8.38;3.47;;;13.40;99.90;;;;;;5034490;28;20647;-81
2023/08/13 04:48:42;;;;;;;7.40;3.05;;;13.40;99.90;;;;;;5030188;28;20194;-82
2023/08/13 04:51:18;;;;;;;8.02;2.70;;;13.50;99.90;;;;;;5030892;28;20193;-82
2023/08/13 04:53:47;;;;;;;9.20;2.92;;;13.50;99.90;;;;;;5036071;28;20193;-81
2023/08/13 04:56:16;;;;;;;5.60;2.60;;;13.50;99.90;;;;;;5038386;28;20198;-82
2023/08/13 04:58:44;;;;;;;5.50;2.95;;;13.60;99.90;;;;;;5035799;28;20237;-82
2023/08/13 05:01:12;;;;;;;6.05;3.35;;;13.60;99.90;;;;;;5033164;28;20258;-81
2023/08/13 05:03:44;;;;;;;5.18;3.30;;;13.70;99.90;;;;;;5018328;28;20219;-81
2023/08/13 05:06:13;;;;;;;6.85;3.15;;;13.70;99.90;;;;;;5033407;28;20205;-82
2023/08/13 05:08:41;;;;;;;6.10;2.90;;;13.80;99.90;;;;;;5047549;28;20605;-81
2023/08/13 05:11:09;;;;;;;6.47;2.78;;;13.80;99.90;;;;;;5008238;28;20189;-81
2023/08/13 05:13:37;;;;;;;5.28;2.83;;;13.80;99.90;;;;;;5020946;28;20256;-82
2023/08/13 05:16:05;;;;;;;7.85;3.05;;;13.90;99.90;;;;;;5027703;28;20190;-83
2023/08/13 05:18:34;;;;;;;4.50;2.47;;;13.90;99.90;;;;;;5029142;28;20233;-82
2023/08/13 05:21:02;;;;;;;8.00;3.28;;;14.00;99.90;;;;;;5024118;28;20187;-82
2023/08/13 05:23:30;;;;;;;9.02;2.83;;;14.00;99.90;;;;;;5028971;28;20699;-82
2023/08/13 05:25:57;;;;;;;8.93;3.28;;;14.10;99.90;;;;;;5023882;28;20191;-83
2023/08/13 05:28:29;;;;;;;6.68;3.20;;;14.20;99.90;;;;;;5013857;28;20188;-83
2023/08/13 05:31:05;;;;;;;6.65;3.17;;;14.20;99.90;;;;;;5014063;28;20197;-82
2023/08/13 05:33:34;;;;;;;5.00;2.75;;;14.30;99.90;;;;;;5035999;28;20194;-82
2023/08/13 05:36:03;;;;;;;7.03;3.00;;;14.30;99.90;;;;;;5033886;28;20190;-83
2023/08/13 05:38:33;;;;;;;6.90;3.28;;;14.40;99.90;;;;;;5019339;28;20222;-83
2023/08/13 05:41:04;;;;;;;6.93;3.08;;;14.40;99.90;;;;;;5027086;28;20902;-82
2023/08/13 05:43:32;;;;;;;7.60;3.22;;;14.60;99.90;;;;;;5034940;28;20182;-81
2023/08/13 05:46:00;;;;;;;8.27;2.70;;;14.60;99.90;;;;;;5030414;28;20273;-82
2023/08/13 05:48:28;;;;;;;6.53;3.15;;;14.70;99.90;;;;;;5029088;28;20243;-82
2023/08/13 05:50:55;;;;;;;6.32;2.85;;;14.80;99.90;;;;;;5016675;28;20259;-81
2023/08/13 05:53:23;;;;;;;6.30;3.13;;;15.00;99.90;;;;;;5005962;28;20250;-81
2023/08/13 05:55:52;;;;;;;9.88;3.33;;;15.00;99.90;;;;;;5018507;28;20274;-83
2023/08/13 05:58:20;;;;;;;7.95;3.13;;;15.20;99.90;;;;;;5020201;28;20203;-82
2023/08/13 06:00:48;;;;;;;7.50;3.05;;;15.20;99.90;;;;;;5029347;28;20262;-81
2023/08/13 06:03:16;;;;;;;8.10;3.10;;;15.40;99.90;;;;;;5034225;28;20242;-82
2023/08/13 06:05:44;;;;;;;7.30;3.60;;;15.40;99.90;;;;;;5031393;28;20195;-83
2023/08/13 06:08:11;;;;;;;6.75;2.95;;;15.50;99.90;;;;;;5031660;28;20655;-84
2023/08/13 06:10:39;;;;;;;3.83;2.92;;;15.50;99.90;;;;;;5020194;28;20652;-83
2023/08/13 06:13:06;;;;;;;4.70;3.20;;;15.50;99.90;;;;;;5036440;28;20235;-83
2023/08/13 06:15:34;;;;;;;5.97;3.05;;;15.90;99.90;;;;;;5028640;28;20185;-83
2023/08/13 06:18:02;;;;;;;8.40;3.65;;;16.00;99.90;;;;;;5006932;28;20206;-82
2023/08/13 06:20:32;;;;;;;6.75;3.25;;;16.00;99.90;;;;;;5023647;28;20197;-82
2023/08/13 06:23:00;;;;;;;7.80;3.17;;;16.10;99.90;;;;;;5028525;28;20238;-83
2023/08/13 06:25:28;;;;;;;7.10;3.25;;;16.20;99.90;;;;;;5016120;28;20210;-83
2023/08/13 06:27:56;;;;;;;7.15;2.85;;;16.30;99.90;;;;;;5022100;28;20187;-82
2023/08/13 06:30:24;;;;;;;7.60;3.30;;;16.30;99.90;;;;;;5006434;28;20661;-84
2023/08/13 06:32:52;;;;;;;8.32;3.40;;;16.60;99.90;;;;;;5024712;28;20246;-84
2023/08/13 06:35:21;;;;;;;7.88;3.38;;;16.80;99.90;;;;;;5022882;28;20186;-83
2023/08/13 06:37:50;;;;;;;5.05;3.42;;;16.70;99.90;;;;;;5015443;28;20274;-82
2023/08/13 06:40:33;;;;;;;5.18;3.38;;;16.80;99.90;;;;;;5025175;28;20224;-82
2023/08/13 06:43:07;;;;;;;8.38;3.35;;;16.70;99.90;;;;;;5023636;28;20267;-87
2023/08/13 06:45:48;;;;;;;8.00;3.13;;;16.90;99.90;;;;;;5027110;28;20177;-82
2023/08/13 06:48:16;;;;;;;9.07;3.60;;;16.90;99.90;;;;;;5025496;28;20250;-83
2023/08/13 06:50:48;;;;;;;4.78;3.17;;;17.10;99.90;;;;;;5027415;28;20201;-83
2023/08/13 06:53:19;;;;;;;6.55;3.05;;;17.00;99.90;;;;;;5029100;28;20188;-83
2023/08/13 06:56:03;;;;;;;6.07;3.33;;;17.40;99.90;;;;;;5028208;28;20186;-82
2023/08/13 06:58:40;;;;;;;6.63;3.50;;;17.40;99.90;;;;;;5026985;28;20250;-84
2023/08/13 07:01:08;;;;;;;5.13;3.60;;;17.40;99.90;;;;;;5032616;28;20188;-82
2023/08/13 07:03:41;;;;;;;8.15;3.47;;;17.40;99.90;;;;;;5025829;28;20182;-83
2023/08/13 07:06:09;;;;;;;6.93;3.63;;;17.30;99.90;;;;;;5027595;28;20284;-83
2023/08/13 07:08:37;;;;;;;9.07;3.53;;;17.20;99.90;;;;;;5026946;28;20193;-83
2023/08/13 07:11:05;;;;;;;6.30;3.33;;;17.30;99.90;;;;;;5030743;28;20197;-83
2023/08/13 07:13:33;;;;;;;5.95;3.47;;;17.40;99.90;;;;;;5025395;28;20187;-83
2023/08/13 07:16:01;;;;;;;8.40;3.10;;;17.50;99.90;;;;;;5031572;28;20187;-83
2023/08/13 07:18:42;;;;;;;6.75;3.35;;;17.60;99.90;;;;;;5022982;28;20212;-82
2023/08/13 07:21:26;;;;;;;6.32;2.90;;;17.60;99.90;;;;;;5026479;28;20204;-83
2023/08/13 07:23:58;;;;;;;5.30;2.75;;;17.70;99.90;;;;;;5029796;28;20190;-83
2023/08/13 07:26:29;;;;;;;5.00;3.00;;;17.90;99.90;;;;;;5024382;28;20186;-86
2023/08/13 07:28:57;;;;;;;5.60;3.10;;;18.10;99.90;;;;;;5025913;28;20272;-84
2023/08/13 07:31:25;;;;;;;5.20;2.60;;;18.10;99.90;;;;;;5025804;28;20297;-83
2023/08/13 07:33:55;;;;;;;5.72;3.15;;;18.20;99.90;;;;;;5028087;28;20252;-81
2023/08/13 07:36:23;;;;;;;3.97;2.95;;;18.00;99.90;;;;;;5034135;28;20190;-82
2023/08/13 07:38:50;;;;;;;4.00;2.40;;;18.10;99.90;;;;;;5025015;28;20229;-83
2023/08/13 07:41:18;;;;;;;9.82;3.22;;;18.10;99.90;;;;;;5023795;28;20782;-83
2023/08/13 07:43:45;;;;;;;5.10;2.33;;;18.30;99.90;;;;;;5023520;28;20192;-82
2023/08/13 07:46:13;;;;;;;5.00;2.60;;;18.70;99.90;;;;;;5022769;28;20217;-84
2023/08/13 07:48:41;;;;;;;6.10;2.50;;;18.60;99.90;;;;;;5027542;28;20258;-83
2023/08/13 07:51:10;;;;;;;5.90;2.35;;;18.70;99.90;;;;;;5027878;28;20722;-84
2023/08/13 07:53:38;;;;;;;6.50;2.22;;;18.60;99.90;;;;;;5030503;28;20217;-81
2023/08/13 07:56:06;;;;;;;4.53;2.13;;;18.70;99.90;;;;;;5041419;28;20213;-81
2023/08/13 07:58:34;;;;;;;4.75;2.20;;;18.80;99.90;;;;;;5023493;28;20700;-81
2023/08/13 08:01:02;;;;;;;5.00;2.22;;;18.90;99.90;;;;;;5017513;28;20182;-83
2023/08/13 08:03:30;;;;;;;6.25;2.50;;;19.00;99.90;;;;;;5029637;28;20221;-82
2023/08/13 08:05:57;;;;;;;3.03;2.33;;;18.90;99.90;;;;;;5036334;28;20194;-82
2023/08/13 08:08:25;;;;;;;6.22;2.40;;;19.10;99.90;;;;;;5030513;28;20780;-82
2023/08/13 08:10:52;;;;;;;3.97;1.92;;;18.90;99.90;;;;;;5040027;28;20186;-83
2023/08/13 08:13:20;;;;;;;3.65;2.15;;;19.00;99.90;;;;;;5032713;28;20186;-82
2023/08/13 08:15:49;;;;;;;2.97;2.00;;;19.10;99.90;;;;;;5030334;28;20193;-83
2023/08/13 08:18:17;;;;;;;4.13;1.95;;;19.40;99.90;;;;;;5028173;28;20286;-84
2023/08/13 08:20:44;;;;;;;5.20;2.30;;;19.30;99.90;;;;;;5030249;28;20671;-83
2023/08/13 08:23:13;;;;;;;6.63;2.30;;;19.00;99.90;;;;;;5024919;28;20269;-83
2023/08/13 08:25:41;;;;;;;5.13;2.13;;;19.00;99.90;;;;;;5023180;28;20193;-83
2023/08/13 08:28:10;;;;;;;7.95;2.55;;;19.20;99.90;;;;;;5030220;28;20195;-83
2023/08/13 08:30:37;;;;;;;4.45;2.30;;;19.20;99.90;;;;;;5029606;28;20201;-83
2023/08/13 08:33:06;;;;;;;3.50;2.05;;;19.30;99.90;;;;;;5038345;28;20174;-84
2023/08/13 08:35:34;;;;;;;5.13;2.70;;;19.40;99.90;;;;;;5024033;28;20847;-82
2023/08/13 08:38:03;;;;;;;5.30;2.25;;;19.60;99.90;;;;;;5041828;28;20189;-84
2023/08/13 08:40:34;;;;;;;3.45;1.98;;;19.80;99.90;;;;;;5023653;28;20225;-83
2023/08/13 08:43:02;;;;;;;15.52;6.10;;;19.80;99.90;;;;;;5030172;28;20248;-83
2023/08/13 08:45:32;;;;;;;5.30;2.22;;;19.80;99.90;;;;;;5042435;28;20239;-83
2023/08/13 08:48:00;;;;;;;6.78;1.83;;;19.80;99.90;;;;;;5026027;28;20702;-84
2023/08/13 08:50:28;;;;;;;7.38;2.42;;;19.70;99.90;;;;;;5030432;28;20735;-84
2023/08/13 08:52:57;;;;;;;6.80;2.58;;;19.90;99.90;;;;;;5005924;28;20195;-84
2023/08/13 08:55:24;;;;;;;8.85;2.22;;;19.90;99.90;;;;;;5025492;28;20197;-83
2023/08/13 08:57:56;;;;;;;7.20;2.40;;;20.00;99.90;;;;;;5019844;28;20273;-84
2023/08/13 09:00:23;;;;;;;6.60;2.08;;;20.00;99.90;;;;;;5025343;28;20203;-84
2023/08/13 09:02:51;;;;;;;5.45;2.20;;;20.20;99.90;;;;;;5029069;28;20186;-82
2023/08/13 09:05:20;;;;;;;8.52;2.20;;;20.20;99.90;;;;;;5032043;28;20197;-84
2023/08/13 09:07:48;;;;;;;7.05;2.33;;;20.30;99.90;;;;;;5032175;28;20277;-83
2023/08/13 09:10:16;;;;;;;6.57;2.00;;;20.20;99.90;;;;;;5031288;28;20187;-84
2023/08/13 09:12:43;;;;;;;3.92;1.95;;;20.40;99.90;;;;;;5029821;28;20194;-84
2023/08/13 09:15:12;;;;;;;4.80;2.05;;;20.30;99.90;;;;;;5033435;28;20209;-83
2023/08/13 09:17:42;;;;;;;7.40;2.22;;;20.50;99.90;;;;;;5031748;28;20231;-83
2023/08/13 09:20:20;;;;;;;7.22;2.13;;;20.60;99.90;;;;;;5030012;28;20218;-83
2023/08/13 09:22:52;;;;;;;5.00;2.35;;;20.30;99.90;;;;;;5036012;28;20187;-83
2023/08/13 09:25:20;;;;;;;3.75;1.73;;;20.30;99.90;;;;;;5034823;27;20300;-85
2023/08/13 09:27:48;;;;;;;5.82;2.30;;;20.40;99.90;;;;;;5039460;28;20195;-83
2023/08/13 09:30:30;;;;;;;4.75;2.15;;;20.30;99.90;;;;;;5040666;28;20272;-84
2023/08/13 09:32:59;;;;;;;4.47;1.85;;;20.40;99.90;;;;;;5026327;28;20479;-83
2023/08/13 09:35:27;;;;;;;4.53;2.17;;;20.60;99.90;;;;;;5022996;28;20198;-83
2023/08/13 09:37:55;;;;;;;5.00;1.80;;;20.70;99.90;;;;;;5025677;28;20197;-84
2023/08/13 09:40:24;;;;;;;3.75;1.92;;;20.60;99.90;;;;;;5028374;28;20225;-82
2023/08/13 09:42:56;;;;;;;5.22;1.90;;;20.70;99.90;;;;;;5016601;28;20193;-83
2023/08/13 09:45:30;;;;;;;3.22;1.75;;;20.60;99.90;;;;;;5004852;28;20200;-83
2023/08/13 09:48:05;;;;;;;4.80;2.33;;;20.80;99.90;;;;;;5033632;28;20818;-84
2023/08/13 09:50:39;;;;;;;5.50;2.00;;;20.90;99.90;;;;;;5032890;28;20201;-83
2023/08/13 09:53:12;;;;;;;3.88;2.05;;;21.00;99.90;;;;;;5033404;28;20201;-84
2023/08/13 09:55:48;;;;;;;3.85;2.00;;;20.80;99.90;;;;;;5024322;28;20190;-83
2023/08/13 09:58:18;;;;;;;3.85;2.03;;;20.80;99.90;;;;;;5024404;28;20191;-83
2023/08/13 10:00:46;;;;;;;4.95;2.08;;;21.00;99.90;;;;;;5023620;28;20245;-83
2023/08/13 10:03:18;;;;;;;5.90;2.28;;;21.30;99.90;;;;;;5026874;28;20668;-86
2023/08/13 10:05:47;;;;;;;7.20;2.45;;;21.10;99.90;;;;;;5029813;28;20392;-85
2023/08/13 10:08:22;;;;;;;3.67;1.80;;;21.20;99.90;;;;;;5053171;28;20183;-82
2023/08/13 10:10:49;;;;;;;4.55;2.17;;;21.20;99.90;;;;;;5021572;28;20205;-82
2023/08/13 10:13:18;;;;;;;5.70;2.22;;;21.30;99.90;;;;;;5031301;28;20198;-84
2023/08/13 10:15:47;;;;;;;8.10;2.42;;;21.30;99.90;;;;;;5012330;28;20186;-84
2023/08/13 10:18:17;;;;;;;7.03;2.10;;;21.20;99.90;;;;;;5022859;28;20195;-83
2023/08/13 10:20:48;;;;;;;6.93;2.30;;;21.30;99.90;;;;;;5024161;28;20218;-83
2023/08/13 10:23:17;;;;;;;4.93;1.98;;;21.30;99.90;;;;;;5026132;28;20700;-83
2023/08/13 10:25:45;;;;;;;5.47;2.03;;;21.40;99.90;;;;;;5028947;28;20202;-84
2023/08/13 10:28:27;;;;;;;3.95;2.25;;;21.40;99.90;;;;;;5026695;28;20206;-83
2023/08/13 10:31:23;;;;;;;4.40;2.30;;;21.50;99.90;;;;;;5032057;28;20544;-84
2023/08/13 10:34:11;;;;;;;7.40;2.13;;;21.40;99.90;;;;;;5026172;28;20212;-85
2023/08/13 10:36:55;;;;;;;3.53;1.98;;;21.70;99.90;;;;;;5025146;28;20661;-83
2023/08/13 10:39:42;;;;;;;7.03;2.20;;;21.70;99.90;;;;;;5028441;28;20222;-84
2023/08/13 10:42:33;;;;;;;4.57;1.85;;;21.90;99.90;;;;;;5028202;28;20231;-84
2023/08/13 10:45:09;;;;;;;6.22;2.28;;;21.90;99.90;;;;;;5016689;28;20582;-83
2023/08/13 10:47:56;;;;;;;3.00;1.58;;;21.90;99.90;;;;;;5030353;28;20263;-84
2023/08/13 10:50:40;;;;;;;4.30;1.90;;;21.90;99.90;;;;;;5027546;28;20194;-85
2023/08/13 10:53:24;;;;;;;7.00;2.10;;;22.10;99.90;;;;;;5024854;28;20214;-84
2023/08/13 10:55:52;;;;;;;4.50;1.60;;;22.10;99.90;;;;;;5040501;28;20196;-85
2023/08/13 10:58:24;;;;;;;5.32;2.03;;;22.20;99.90;;;;;;5025442;28;20192;-84
2023/08/13 11:00:57;;;;;;;3.10;1.90;;;22.10;99.90;;;;;;5025403;28;20201;-84
2023/08/13 11:03:31;;;;;;;3.65;1.75;;;22.20;99.90;;;;;;5045571;28;20678;-85
2023/08/13 11:06:03;;;;;;;3.38;1.83;;;22.30;99.90;;;;;;5027392;28;20197;-84
2023/08/13 11:08:31;;;;;;;8.52;1.95;;;22.40;99.90;;;;;;5022444;28;20189;-85
2023/08/13 11:11:18;;;;;;;5.13;1.90;;;22.50;99.90;;;;;;5027288;28;20239;-85
2023/08/13 11:13:47;;;;;;;5.00;1.88;;;22.60;99.90;;;;;;5024264;28;20183;-85
2023/08/13 11:16:15;;;;;;;3.35;1.80;;;22.60;99.90;;;;;;5029090;28;20189;-84
2023/08/13 11:18:44;;;;;;;4.15;1.80;;;22.80;99.90;;;;;;5025021;28;20196;-84
2023/08/13 11:21:12;;;;;;;5.00;2.00;;;22.80;99.90;;;;;;5024806;28;20198;-84
2023/08/13 11:23:39;;;;;;;6.28;1.88;;;22.90;99.90;;;;;;5009670;28;20186;-85
2023/08/13 11:26:09;;;;;;;3.92;2.00;;;23.10;99.90;;;;;;5006222;28;20190;-84
2023/08/13 11:28:37;;;;;;;7.93;2.40;;;23.20;99.90;;;;;;5028884;28;20177;-85
2023/08/13 11:31:05;;;;;;;3.78;1.98;;;23.20;99.90;;;;;;5027242;27;20191;-85
2023/08/13 11:33:33;;;;;;;3.78;1.80;;;23.50;99.90;;;;;;5022801;28;20664;-85
2023/08/13 11:36:23;;;;;;;7.53;2.30;;;23.50;99.90;;;;;;5027140;28;20682;-84
2023/08/13 11:38:52;;;;;;;6.07;2.40;;;23.50;99.90;;;;;;5024662;28;20802;-85
2023/08/13 11:41:21;;;;;;;7.18;2.20;;;23.40;99.90;;;;;;5018140;28;20215;-85
2023/08/13 11:43:53;;;;;;;4.03;1.80;;;23.30;99.90;;;;;;5029396;28;20242;-84
2023/08/13 11:46:23;;;;;;;4.07;1.52;;;23.30;99.90;;;;;;5028694;28;20268;-85
2023/08/13 11:48:54;;;;;;;4.75;2.17;;;23.50;99.90;;;;;;5029395;28;20202;-84
2023/08/13 11:51:24;;;;;;;2.63;1.70;;;23.80;99.90;;;;;;5035982;28;20675;-84
2023/08/13 11:53:55;;;;;;;3.83;1.80;;;23.90;99.90;;;;;;5022063;28;20202;-85
2023/08/13 11:56:23;;;;;;;4.72;2.17;;;23.80;99.90;;;;;;5007592;28;20194;-86
2023/08/13 11:58:54;;;;;;;5.65;2.10;;;23.70;99.90;;;;;;5021942;28;20665;-85
2023/08/13 12:01:24;;;;;;;7.75;1.70;;;23.60;99.90;;;;;;5026817;28;20194;-86
2023/08/13 12:03:55;;;;;;;9.98;2.28;;;23.60;99.90;;;;;;5028435;28;20238;-87
2023/08/13 12:06:24;;;;;;;3.50;1.80;;;24.00;99.90;;;;;;5042176;28;20200;-87
2023/08/13 12:08:53;;;;;;;4.88;1.85;;;24.00;99.90;;;;;;5014618;28;20198;-86
2023/08/13 12:11:20;;;;;;;7.63;2.20;;;23.80;99.90;;;;;;5021306;28;20194;-86
2023/08/13 12:13:48;;;;;;;6.03;2.05;;;23.60;99.90;;;;;;5032782;28;20676;-87
2023/08/13 12:16:16;;;;;;;3.15;1.60;;;23.50;99.90;;;;;;5022987;28;20190;-87
2023/08/13 12:18:44;;;;;;;5.88;1.85;;;23.10;99.90;;;;;;5011138;28;20664;-87
2023/08/13 12:21:12;;;;;;;4.88;1.85;;;23.00;99.90;;;;;;5009726;28;20311;-86
2023/08/13 12:23:39;;;;;;;3.58;1.77;;;23.00;99.90;;;;;;5035564;28;21073;-86
2023/08/13 12:26:07;;;;;;;4.65;1.60;;;22.90;99.90;;;;;;5032431;28;20682;-86
2023/08/13 12:28:34;;;;;;;6.68;2.03;;;22.80;99.90;;;;;;5021456;28;20191;-87
2023/08/13 12:31:02;;;;;;;3.15;1.73;;;22.60;99.90;;;;;;5028204;28;20198;-86
2023/08/13 12:33:30;;;;;;;4.35;1.60;;;22.70;99.90;;;;;;5026141;28;20189;-87
2023/08/13 12:35:57;;;;;;;5.97;1.83;;;23.00;99.90;;;;;;5026415;28;20227;-86
2023/08/13 12:38:25;;;;;;;2.63;1.92;;;23.00;99.90;;;;;;5029711;28;20272;-86
2023/08/13 12:40:52;;;;;;;8.35;1.60;;;22.90;99.90;;;;;;5036870;28;20213;-85
2023/08/13 12:43:20;;;;;;;4.60;1.85;;;22.80;99.90;;;;;;5043523;28;20220;-84
2023/08/13 12:45:47;;;;;;;3.78;1.50;;;22.70;99.90;;;;;;5041902;28;20232;-85
2023/08/13 12:48:15;;;;;;;8.40;1.90;;;22.60;99.90;;;;;;5024310;28;20213;-85
2023/08/13 12:50:43;;;;;;;4.88;1.98;;;22.50;99.90;;;;;;5025575;28;20205;-84
2023/08/13 12:53:10;;;;;;;4.53;1.83;;;22.30;99.90;;;;;;5025156;28;20621;-85
2023/08/13 12:55:39;;;;;;;5.03;1.92;;;22.50;99.90;;;;;;5024577;28;20181;-83
2023/08/13 12:58:06;;;;;;;3.35;1.45;;;22.50;99.90;;;;;;5006685;28;20258;-83